createdAt,value
2019-05-16T00:05:09.992Z,56.10
2019-05-16T00:11:11.524Z,57.90
2019-05-16T00:17:13.122Z,59.90
2019-05-16T00:23:14.789Z,61.60
2019-05-16T00:29:18.348Z,63.20
2019-05-16T00:35:20.801Z,64.70
2019-05-16T00:41:23.326Z,67.30
2019-05-16T00:47:25.475Z,69.00
2019-05-16T00:53:28.906Z,70.20
2019-05-16T00:59:31.369Z,70.70
2019-05-16T01:05:33.011Z,70.40
2019-05-16T01:11:34.529Z,70.10
2019-05-16T01:17:38.789Z,70.90
2019-05-16T01:23:41.546Z,71.00
2019-05-16T01:29:43.367Z,71.60
2019-05-16T01:35:44.944Z,72.00
2019-05-16T01:41:48.072Z,71.40
2019-05-16T01:47:49.664Z,72.50
2019-05-16T01:53:51.251Z,72.60
2019-05-16T01:59:52.764Z,72.80
2019-05-16T02:05:54.337Z,72.30
2019-05-16T02:11:55.827Z,73.20
2019-05-16T02:17:58.711Z,73.80
2019-05-16T02:24:02.049Z,74.40
2019-05-16T02:30:05.973Z,75.30
2019-05-16T02:36:10.675Z,74.90
2019-05-16T02:42:12.100Z,76.40
2019-05-16T02:48:13.767Z,75.60
2019-05-16T02:54:15.213Z,75.80
2019-05-16T03:00:20.940Z,76.00
2019-05-16T03:06:22.756Z,74.70
2019-05-16T03:12:25.626Z,76.90
2019-05-16T03:18:30.996Z,75.00
2019-05-16T03:24:33.081Z,75.80
2019-05-16T03:30:36.466Z,75.50
2019-05-16T03:36:43.442Z,75.10
2019-05-16T03:42:43.631Z,76.20
2019-05-16T03:48:45.068Z,78.30
2019-05-16T03:54:46.610Z,79.60
2019-05-16T04:00:54.453Z,81.20
2019-05-16T04:07:01.391Z,80.50
2019-05-16T04:13:03.908Z,80.90
2019-05-16T04:19:05.510Z,78.20
2019-05-16T04:25:07.089Z,77.90
2019-05-16T04:31:10.998Z,77.80
2019-05-16T04:37:12.019Z,76.20
2019-05-16T04:43:13.488Z,76.00
2019-05-16T04:49:15.033Z,74.50
2019-05-16T04:55:16.571Z,73.80
2019-05-16T05:01:21.189Z,71.50
2019-05-16T05:07:21.469Z,73.10
2019-05-16T05:13:22.965Z,71.80
2019-05-16T05:19:24.521Z,70.30
2019-05-16T05:25:26.092Z,70.40
2019-05-16T05:31:34.418Z,71.50
2019-05-16T05:37:30.835Z,69.00
2019-05-16T05:43:32.375Z,68.20
2019-05-16T05:49:33.941Z,71.10
2019-05-16T05:55:40.296Z,69.40
2019-05-16T06:01:40.686Z,71.40
2019-05-16T06:07:42.699Z,69.80
2019-05-16T06:13:44.329Z,69.10
2019-05-16T06:19:49.605Z,68.30
2019-05-16T06:25:50.645Z,70.30
2019-05-16T06:31:53.238Z,70.40
2019-05-16T06:37:54.863Z,72.40
2019-05-16T06:43:56.756Z,70.50
2019-05-16T06:50:00.093Z,71.40
2019-05-16T06:56:01.466Z,71.00
2019-05-16T07:02:03.254Z,69.50
2019-05-16T07:08:05.039Z,69.20
2019-05-16T07:14:06.694Z,68.60
2019-05-16T07:20:10.389Z,71.30
2019-05-16T07:26:12.249Z,72.30
2019-05-16T07:32:13.821Z,73.80
2019-05-16T07:38:15.454Z,74.30
2019-05-16T07:44:17.027Z,75.60
2019-05-16T07:50:20.178Z,75.70
2019-05-16T07:56:21.852Z,76.40
2019-05-16T08:02:23.504Z,76.90
2019-05-16T08:08:25.098Z,76.90
2019-05-16T08:14:26.820Z,77.80
2019-05-16T08:20:31.243Z,79.70
2019-05-16T08:26:35.429Z,82.20
2019-05-16T08:32:35.182Z,83.40
2019-05-16T08:38:36.800Z,85.30
2019-05-16T08:50:50.287Z,85.60
2019-05-16T08:56:46.204Z,86.40
2019-05-16T09:02:47.658Z,87.10
2019-05-16T09:08:49.156Z,85.90
2019-05-16T09:10:21.222Z,85.50
2019-05-16T09:14:50.699Z,85.90
2019-05-16T09:20:52.200Z,86.40
2019-05-16T09:26:53.852Z,88.80
2019-05-16T09:32:55.444Z,89.60
2019-05-16T09:38:57.943Z,90.00
2019-05-16T09:44:59.554Z,89.60
2019-05-16T09:51:01.329Z,87.30
2019-05-16T09:57:03.014Z,86.50
2019-05-16T10:03:07.172Z,87.60
2019-05-16T10:09:09.340Z,88.80
2019-05-16T10:15:12.473Z,89.00
2019-05-16T10:21:17.801Z,89.60
2019-05-16T10:27:17.423Z,89.30
2019-05-16T10:33:19.423Z,90.20
2019-05-16T10:39:21.465Z,89.20
2019-05-16T10:45:23.085Z,89.60
2019-05-16T10:51:26.737Z,90.00
2019-05-16T10:57:29.922Z,90.00
2019-05-16T11:03:31.688Z,90.20
2019-05-16T11:09:33.460Z,90.20
2019-05-16T11:15:37.404Z,91.10
2019-05-16T11:21:38.765Z,91.50
2019-05-16T11:27:40.341Z,90.70
2019-05-16T11:33:41.897Z,91.50
2019-05-16T11:39:43.451Z,91.10
2019-05-16T11:45:46.856Z,91.10
2019-05-16T11:51:48.521Z,90.40
2019-05-16T11:57:50.951Z,90.90
2019-05-16T12:03:52.421Z,90.90
2019-05-16T12:09:55.756Z,90.60
2019-05-16T12:15:57.367Z,90.50
2019-05-16T12:21:59.122Z,90.80
2019-05-16T12:28:02.194Z,90.40
2019-05-16T12:34:04.170Z,91.10
2019-05-16T12:40:07.138Z,91.00
2019-05-16T12:46:08.767Z,91.00
2019-05-16T12:52:10.359Z,91.40
2019-05-16T12:58:13.327Z,91.60
2019-05-16T13:04:18.856Z,92.10
2019-05-16T13:10:19.256Z,92.00
2019-05-16T13:16:20.746Z,92.10
2019-05-16T13:22:22.201Z,91.70
2019-05-16T13:28:23.877Z,92.00
2019-05-16T13:34:28.050Z,92.40
2019-05-16T13:40:28.737Z,92.60
2019-05-16T13:46:31.263Z,92.40
2019-05-16T13:52:32.902Z,92.90
2019-05-16T13:58:34.310Z,93.10
2019-05-16T14:04:39.606Z,93.00
2019-05-16T14:10:42.475Z,92.70
2019-05-16T14:16:44.048Z,92.80
2019-05-16T14:22:45.739Z,93.00
2019-05-16T14:28:51.206Z,93.40
2019-05-16T14:34:52.698Z,93.30
2019-05-16T14:40:54.297Z,93.40
2019-05-16T14:46:55.763Z,93.50
2019-05-16T14:52:57.198Z,93.60
2019-05-16T14:58:58.659Z,93.90
2019-05-16T15:05:00.235Z,93.40
2019-05-16T15:11:01.753Z,93.40
2019-05-16T15:17:06.850Z,93.30
2019-05-16T15:23:07.940Z,94.00
2019-05-16T15:29:09.343Z,94.40
2019-05-16T15:35:11.434Z,94.50
2019-05-16T15:41:12.906Z,94.40
2019-05-16T15:47:17.422Z,94.60
2019-05-16T15:53:20.998Z,94.70
2019-05-16T15:59:22.587Z,94.70
2019-05-16T16:05:26.590Z,94.70
2019-05-16T16:11:27.768Z,94.90
2019-05-16T16:17:29.544Z,94.30
2019-05-16T16:23:31.255Z,94.10
2019-05-16T16:29:33.333Z,94.50
2019-05-16T16:35:37.842Z,94.30
2019-05-16T16:41:38.331Z,93.70
2019-05-16T16:47:39.800Z,93.10
2019-05-16T16:53:43.171Z,93.20
2019-05-16T16:59:44.682Z,93.50
2019-05-16T17:05:46.591Z,93.40
2019-05-16T17:11:48.283Z,93.10
2019-05-16T17:17:49.741Z,93.10
2019-05-16T17:23:52.231Z,93.30
2019-05-16T17:29:53.772Z,93.70
2019-05-16T17:35:55.386Z,93.60
2019-05-16T17:41:57.993Z,93.40
2019-05-16T17:48:01.482Z,93.00
2019-05-16T17:54:03.160Z,93.00
2019-05-16T18:00:07.130Z,92.80
2019-05-16T18:06:09.585Z,93.20
2019-05-16T18:12:11.240Z,92.90
2019-05-16T18:18:12.889Z,93.20
2019-05-16T18:24:16.543Z,93.70
2019-05-16T18:30:23.109Z,93.80
2019-05-16T18:36:26.623Z,93.90
2019-05-16T18:42:28.126Z,94.10
2019-05-16T18:48:29.875Z,94.10
2019-05-16T18:54:31.437Z,94.30
2019-05-16T19:00:33.039Z,94.30
2019-05-16T19:06:36.866Z,94.50
2019-05-16T19:12:38.193Z,94.70
2019-05-16T19:18:39.840Z,94.80
2019-05-16T19:24:42.834Z,94.90
2019-05-16T19:30:46.515Z,95.00
2019-05-16T19:36:50.071Z,95.10
2019-05-16T19:42:52.016Z,95.30
2019-05-16T19:48:53.617Z,95.20
2019-05-16T19:54:56.424Z,95.40
2019-05-16T20:00:58.287Z,95.50
2019-05-16T20:06:59.734Z,95.40
2019-05-16T20:13:01.513Z,95.50
2019-05-16T20:19:04.026Z,95.60
2019-05-16T20:25:05.784Z,95.60
2019-05-16T20:31:07.977Z,95.80
2019-05-16T20:37:09.734Z,95.80
2019-05-16T20:43:12.386Z,95.80
2019-05-16T20:49:16.635Z,95.90
2019-05-16T20:55:17.680Z,95.90
2019-05-16T21:01:19.205Z,96.00
2019-05-16T21:07:20.664Z,96.00
2019-05-16T21:13:22.192Z,96.00
2019-05-16T21:19:23.737Z,96.00
2019-05-16T21:25:26.349Z,96.10
2019-05-16T21:31:28.914Z,96.30
2019-05-16T21:37:30.634Z,96.30
2019-05-16T21:43:32.294Z,96.30
2019-05-16T21:49:37.043Z,96.20
2019-05-16T21:55:39.173Z,96.20
2019-05-16T22:01:41.215Z,96.10
2019-05-16T22:07:42.645Z,96.10
2019-05-16T22:13:46.360Z,96.10
2019-05-16T22:19:47.677Z,96.10
2019-05-16T22:25:49.424Z,96.10
2019-05-16T22:31:50.884Z,96.00
2019-05-16T22:37:56.431Z,96.10
2019-05-16T22:44:13.439Z,96.20
2019-05-16T22:50:17.551Z,96.20
2019-05-16T22:56:19.581Z,96.20
2019-05-16T23:02:21.042Z,96.20
2019-05-16T23:08:22.766Z,96.00
2019-05-16T23:14:26.388Z,96.00
2019-05-16T23:20:27.949Z,96.00
2019-05-16T23:26:29.552Z,96.00
2019-05-16T23:32:31.164Z,96.20
2019-05-16T23:38:32.843Z,96.10
2019-05-16T23:44:36.708Z,96.20
2019-05-16T23:50:37.662Z,96.30
2019-05-16T23:56:39.114Z,96.40
